सभी
Kiruna Airport (Kiruna) KRN मौसम
|
Kiruna (KRN / ESNQ)
स्वच्छ आकाश
हल्की हवाएं |
|
-4 °C |
KRN Terminal Area Forecast
| Date | Time (CEST) | Flight Rules | Wind Dir. | Speed | Type | Height AGL (ft) | Visibility | Remarks | ||||||
|---|---|---|---|---|---|---|---|---|---|---|---|---|---|---|
Recent KRN METAR history
| Date | Time (CEST) | Flight Rules | Wind Dir. | Speed | Type | Height AGL (ft) | Visibility | Temp (°C) | Temp (°F) | Dew Point (°C) | Dew Point (°F) | Rel. Humid. | Pressure | Density Altitude | Remarks |
|---|---|---|---|---|---|---|---|---|---|---|---|---|---|---|---|
| 03-मई | 03:50 | VFR | 210° | 7 kt | 10000 meters | -5° | 23° | -8° | 17° | 79% | 1001 mb | -294 ft | |||
| 03-मई | 03:20 | VFR | 210° | 6 kt | 10000 meters | -4° | 24° | -9° | 15° | 68% | 1001 mb | -174 ft | |||
| 03-मई | 02:50 | VFR | 210° | 5 kt | 10000 meters | -4° | 24° | -8° | 17° | 74% | 1001 mb | -174 ft | |||
| 03-मई | 02:20 | VFR | 310° | 4 kt | 10000 meters | -3° | 26° | -9° | 15° | 63% | 1001 mb | -54 ft | |||
| 03-मई | 01:50 | VFR | 250° | 9 kt | 10000 meters | -3° | 26° | -7° | 19° | 74% | 1000 mb | -24 ft | |||
| 03-मई | 01:20 | VFR | 260° | 9 kt | 10000 meters | -1° | 30° | -8° | 17° | 59% | 1000 mb | 216 ft | |||
| 03-मई | 00:50 | VFR | 280° | 11 kt | 10000 meters | -1° | 30° | -9° | 15° | 54% | 1000 mb | 216 ft | |||
| 03-मई | 00:20 | VFR | 280° | 6 kt | 10000 meters | -2° | 28° | -6° | 21° | 74% | 1000 mb | 96 ft | |||
| 02-मई | 23:50 | VFR | 290° | 7 kt | 10000 meters | -2° | 28° | -6° | 21° | 74% | 1000 mb | 96 ft | |||
| 02-मई | 23:20 | VFR | 280° | 6 kt | 10000 meters | -2° | 28° | -6° | 21° | 74% | 1000 mb | 96 ft | |||
| 02-मई | 22:50 | VFR | 240° | 9 kt | 10000 meters | -1° | 30° | -6° | 21° | 69% | 1000 mb | 216 ft | |||
| 02-मई | 22:20 | VFR | 240° | 9 kt | 10000 meters | -1° | 30° | -6° | 21° | 69% | 1000 mb | 216 ft | |||
| 02-मई | 21:50 | VFR | 230° | 11 kt | 10000 meters | -1° | 30° | -6° | 21° | 69% | 1000 mb | 216 ft | |||
| 02-मई | 21:20 | VFR | 230° | 7 kt | 10000 meters | 0° | 32° | -6° | 21° | 64% | 1000 mb | 336 ft | |||
| 02-मई | 20:50 | VFR | 260° | 8 kt | 10000 meters | 1° | 33° | -6° | 21° | 59% | 1000 mb | 456 ft | |||
| 02-मई | 20:20 | VFR | 260° | 9 kt | Few |
10,000 |
10000 meters | 1° | 33° | -5° | 23° | 64% | 1000 mb | 456 ft | |
| 02-मई | 19:50 | VFR | 270° | 11 kt | 10000 meters | 2° | 35° | -6° | 21° | 55% | 1000 mb | 576 ft | |||
| 02-मई | 19:20 | VFR | 280° | 12 kt | 10000 meters | 3° | 37° | -6° | 21° | 51% | 1000 mb | 696 ft | |||
| 02-मई | 18:50 | VFR | 290° | 13 kt | 10000 meters | 3° | 37° | -7° | 19° | 48% | 999 mb | 725 ft | |||
| 02-मई | 18:20 | VFR | 270° | 12 kt | Few |
4,500 |
10000 meters | 4° | 39° | -6° | 21° | 48% | 999 mb | 845 ft | |
| 02-मई | 17:50 | VFR | 290° | 12 kt | 10000 meters | 4° | 39° | -6° | 21° | 48% | 999 mb | 845 ft | |||
| 02-मई | 17:20 | VFR | 280° | 17 kt | 10000 meters | 4° | 39° | -6° | 21° | 48% | 999 mb | 845 ft | |||
| 02-मई | 16:50 | VFR | 290° | 14 kt | 10000 meters | 5° | 41° | -7° | 19° | 41% | 999 mb | 965 ft | |||
| 02-मई | 16:20 | VFR | 300° | 15 kt | 10000 meters | 5° | 41° | -8° | 17° | 38% | 999 mb | 965 ft |
लॉगिन
| Your browser is unsupported. अपना ब्राऊजर अपग्रेड करें |
